Time;durP1;ratioP1;P1;durP2;ratioP2;P2;SDS_P1;SDS_P2;PMS_P1;PMS_P2;Temp;Humidity;BMP_temperature;BMP_pressure;BME280_temperature;BME280_humidity;BME280_pressure;Samples;Min_cycle;Max_cycle;Signal;HPM_P1;HPM_P2
2023/08/18 00:00:06;;;;;;;12.95;4.60;;;;;;;25.96;nan;95334.53;5073523;28;20032;-82
2023/08/18 00:02:31;;;;;;;10.18;4.72;;;;;;;25.48;nan;95256.63;5071681;28;20094;-81
2023/08/18 00:04:56;;;;;;;10.13;4.50;;;;;;;25.84;nan;95310.31;5071532;28;20036;-82
2023/08/18 00:07:23;;;;;;;13.40;4.20;;;;;;;25.69;nan;95278.69;5071230;28;20036;-82
2023/08/18 00:09:49;;;;;;;6.18;3.75;;;;;;;25.77;nan;95329.25;5071966;28;20033;-82
2023/08/18 00:12:14;;;;;;;10.52;4.30;;;;;;;25.66;nan;95312.78;5072467;28;20041;-82
2023/08/18 00:14:40;;;;;;;8.70;4.50;;;;;;;25.63;nan;95310.03;5071265;28;20055;-81
2023/08/18 00:17:05;;;;;;;10.43;3.95;;;;;;;25.68;nan;95323.28;5073087;28;20071;-81
2023/08/18 00:19:30;;;;;;;9.30;4.45;;;;;;;25.58;nan;95294.81;5072182;28;20037;-82
2023/08/18 00:21:56;;;;;;;6.60;3.85;;;;;;;25.57;nan;95295.94;5072736;28;20033;-82
2023/08/18 00:24:21;;;;;;;8.10;4.32;;;;;;;25.41;nan;95280.94;5073054;28;20036;-82
2023/08/18 00:26:47;;;;;;;12.80;4.45;;;;;;;25.59;nan;95312.69;5072891;28;20040;-82
2023/08/18 00:29:13;;;;;;;6.75;4.07;;;;;;;25.31;nan;95280.44;5071198;28;20047;-82
2023/08/18 00:31:38;;;;;;;13.95;4.22;;;;;;;25.50;nan;95292.31;5071885;28;20036;-82
2023/08/18 00:34:04;;;;;;;13.25;3.90;;;;;;;25.64;nan;95317.00;5070804;28;20039;-82
2023/08/18 00:36:31;;;;;;;12.40;4.40;;;;;;;25.62;nan;95316.59;5071359;28;20062;-82
2023/08/18 00:38:58;;;;;;;10.30;4.20;;;;;;;25.38;nan;95280.53;5072599;28;20039;-82
2023/08/18 00:41:24;;;;;;;9.85;4.10;;;;;;;25.40;nan;95287.53;5053196;28;20033;-81
2023/08/18 00:43:49;;;;;;;6.13;4.10;;;;;;;25.69;nan;95320.22;5072173;28;20535;-81
2023/08/18 00:46:16;;;;;;;7.65;3.90;;;;;;;25.48;nan;95300.06;5071410;28;20047;-81
2023/08/18 00:48:42;;;;;;;10.00;4.30;;;;;;;25.49;nan;95293.47;5071397;28;20461;-81
2023/08/18 00:51:09;;;;;;;6.95;4.07;;;;;;;24.94;nan;95211.63;5072480;28;20029;-81
2023/08/18 00:53:36;;;;;;;9.05;4.65;;;;;;;25.56;nan;95324.22;5072255;28;20051;-81
2023/08/18 00:56:02;;;;;;;8.25;4.53;;;;;;;24.52;nan;95165.59;5070534;28;20063;-81
2023/08/18 00:58:29;;;;;;;9.07;4.47;;;;;;;25.48;nan;95329.94;5071963;28;20071;-82
2023/08/18 01:00:55;;;;;;;12.57;4.60;;;;;;;25.42;nan;95310.44;5070631;28;20536;-81
2023/08/18 01:03:21;;;;;;;12.05;4.93;;;;;;;25.04;nan;95295.09;5072199;28;20040;-81
2023/08/18 01:05:46;;;;;;;11.50;4.43;;;;;;;25.22;nan;95300.81;5071516;28;20437;-81
2023/08/18 01:08:12;;;;;;;10.20;4.78;;;;;;;24.89;nan;95277.00;5070309;28;20044;-82
2023/08/18 01:10:52;;;;;;;10.43;4.57;;;;;;;25.05;nan;95315.66;5071098;28;20070;-82
2023/08/18 01:13:54;;;;;;;8.95;3.90;;;;;;;24.83;nan;95267.59;5069065;28;20070;-81
2023/08/18 01:16:26;;;;;;;11.65;4.93;;;;;;;24.87;nan;95280.06;5071355;28;20033;-81
2023/08/18 01:18:53;;;;;;;8.27;4.53;;;;;;;25.14;nan;95313.50;5072404;28;20052;-81
2023/08/18 01:21:22;;;;;;;7.47;4.15;;;;;;;25.05;nan;95323.03;5070881;28;20044;-81
2023/08/18 01:23:48;;;;;;;6.80;4.63;;;;;;;24.18;nan;95203.28;5069738;28;20123;-81
2023/08/18 01:26:13;;;;;;;6.72;4.30;;;;;;;24.99;nan;95296.19;5072553;28;20068;-81
2023/08/18 01:28:40;;;;;;;7.70;3.90;;;;;;;24.83;nan;95270.31;5072154;28;20047;-81
2023/08/18 01:31:13;;;;;;;9.18;4.18;;;;;;;24.93;nan;95296.88;5072306;28;20048;-81
2023/08/18 01:33:54;;;;;;;10.55;4.40;;;;;;;24.68;nan;95249.50;5070174;28;20036;-81
2023/08/18 01:36:27;;;;;;;10.73;5.15;;;;;;;24.73;nan;95257.34;5072540;28;20157;-81
2023/08/18 01:38:55;;;;;;;11.40;4.75;;;;;;;24.93;nan;95291.44;5070738;28;20127;-81
2023/08/18 01:41:23;;;;;;;14.93;5.35;;;;;;;25.11;nan;95319.63;5072207;28;20039;-81
2023/08/18 01:43:49;;;;;;;12.38;4.80;;;;;;;25.13;nan;95316.56;5070273;28;20150;-81
2023/08/18 01:46:15;;;;;;;8.05;4.28;;;;;;;24.91;nan;95293.72;5072192;28;20036;-81
2023/08/18 01:48:40;;;;;;;6.15;4.70;;;;;;;25.04;nan;95316.81;5071260;28;20024;-81
2023/08/18 01:51:06;;;;;;;11.50;4.25;;;;;;;24.82;nan;95285.78;5071442;28;20051;-81
2023/08/18 01:53:31;;;;;;;11.05;5.07;;;;;;;24.94;nan;95296.50;5072920;28;20089;-81
2023/08/18 01:56:02;;;;;;;8.88;4.65;;;;;;;24.81;nan;95297.78;5072829;28;20040;-81
2023/08/18 01:58:28;;;;;;;7.70;4.00;;;;;;;24.86;nan;95294.00;5073926;28;20076;-81
2023/08/18 02:00:58;;;;;;;8.70;4.03;;;;;;;25.01;nan;95301.28;5072050;28;20040;-81
2023/08/18 02:03:25;;;;;;;4.85;3.97;;;;;;;24.31;nan;95195.03;5080258;28;20037;-81
2023/08/18 02:05:56;;;;;;;9.93;4.50;;;;;;;24.76;nan;95270.19;5075882;28;20536;-81
2023/08/18 02:08:22;;;;;;;11.25;4.65;;;;;;;24.81;nan;95286.16;5076292;28;20475;-81
2023/08/18 02:10:47;;;;;;;9.98;4.05;;;;;;;24.89;nan;95293.25;5076340;28;20045;-81
2023/08/18 02:13:14;;;;;;;11.02;4.40;;;;;;;24.92;nan;95298.78;5083714;28;20036;-81
2023/08/18 02:15:39;;;;;;;7.43;4.53;;;;;;;24.54;nan;95234.56;5075209;28;20039;-81
2023/08/18 02:18:05;;;;;;;8.38;4.18;;;;;;;24.79;nan;95280.31;5074853;28;20056;-81
2023/08/18 02:20:30;;;;;;;7.85;4.63;;;;;;;24.79;nan;95272.97;5076225;28;20399;-81
2023/08/18 02:22:56;;;;;;;11.73;4.55;;;;;;;24.63;nan;95256.03;5075934;28;20043;-82
2023/08/18 02:25:22;;;;;;;9.20;5.03;;;;;;;24.44;nan;95254.13;5073916;28;20044;-82
2023/08/18 02:27:48;;;;;;;7.72;4.70;;;;;;;24.53;nan;95267.47;5074740;28;20125;-82
2023/08/18 02:30:13;;;;;;;8.27;5.18;;;;;;;24.29;nan;95240.69;5075091;28;20126;-81
2023/08/18 02:32:39;;;;;;;10.73;4.20;;;;;;;24.59;nan;95282.28;5073373;28;20125;-82
2023/08/18 02:35:04;;;;;;;6.93;4.35;;;;;;;23.95;nan;95185.44;5074726;28;20041;-82
2023/08/18 02:37:30;;;;;;;11.50;4.95;;;;;;;23.67;nan;95150.47;5075246;28;20048;-82
2023/08/18 02:39:55;;;;;;;7.28;4.32;;;;;;;24.33;nan;95244.25;5073886;28;20045;-82
2023/08/18 02:42:21;;;;;;;8.82;4.38;;;;;;;23.97;nan;95175.81;5075153;28;20115;-82
2023/08/18 02:44:46;;;;;;;13.70;5.22;;;;;;;24.55;nan;95270.59;5073215;28;20087;-82
2023/08/18 02:47:13;;;;;;;7.07;4.47;;;;;;;24.47;nan;95258.84;5072608;28;20097;-82
2023/08/18 02:49:38;;;;;;;10.75;5.07;;;;;;;23.84;nan;95169.78;5075128;28;20048;-82
2023/08/18 02:52:04;;;;;;;10.77;4.80;;;;;;;24.19;nan;95217.63;5073837;28;20078;-82
2023/08/18 02:54:30;;;;;;;9.98;4.70;;;;;;;24.52;nan;95279.44;5075596;28;20036;-82
2023/08/18 02:56:55;;;;;;;10.50;4.68;;;;;;;24.51;nan;95267.81;5073143;28;20037;-81
2023/08/18 02:59:22;;;;;;;11.23;4.45;;;;;;;24.12;nan;95220.19;5073420;28;20041;-81
2023/08/18 03:01:48;;;;;;;9.70;5.78;;;;;;;24.04;nan;95197.59;5072496;28;20040;-82
2023/08/18 03:04:14;;;;;;;14.35;5.03;;;;;;;24.55;nan;95270.59;5074841;28;20032;-82
2023/08/18 03:06:40;;;;;;;8.60;4.78;;;;;;;24.60;nan;95287.34;5074932;28;20107;-82
2023/08/18 03:09:05;;;;;;;7.63;4.60;;;;;;;24.61;nan;95285.44;5074572;28;20469;-82
2023/08/18 03:11:31;;;;;;;9.88;4.75;;;;;;;24.53;nan;95267.47;5056459;28;20075;-82
2023/08/18 03:13:56;;;;;;;9.15;5.00;;;;;;;24.42;nan;95266.47;5073418;28;20140;-82
2023/08/18 03:16:22;;;;;;;9.07;4.85;;;;;;;24.43;nan;95279.66;5073582;28;20513;-82
2023/08/18 03:18:47;;;;;;;9.57;4.45;;;;;;;24.13;nan;95232.59;5072756;28;20044;-82
2023/08/18 03:21:13;;;;;;;9.20;4.60;;;;;;;24.00;nan;95221.16;5072794;28;20067;-82
2023/08/18 03:23:38;;;;;;;14.15;5.72;;;;;;;24.20;nan;95271.50;5074292;28;20115;-82
2023/08/18 03:26:05;;;;;;;11.55;5.18;;;;;;;23.79;nan;95201.78;5075041;28;20043;-82
2023/08/18 03:28:32;;;;;;;10.55;5.00;;;;;;;24.29;nan;95273.19;5073190;28;20025;-82
2023/08/18 03:31:03;;;;;;;14.45;5.70;;;;;;;24.03;nan;95230.50;5073525;28;20111;-82
2023/08/18 03:33:29;;;;;;;14.60;5.18;;;;;;;24.20;nan;95255.22;5075696;28;20043;-81
2023/08/18 03:35:54;;;;;;;11.98;4.68;;;;;;;24.46;nan;95295.22;5073366;28;20495;-81
2023/08/18 03:38:21;;;;;;;8.40;5.18;;;;;;;24.47;nan;95302.22;5071343;28;20039;-81
2023/08/18 03:40:48;;;;;;;9.73;5.18;;;;;;;24.11;nan;95268.19;5071850;28;20029;-81
2023/08/18 03:43:13;;;;;;;7.55;4.82;;;;;;;24.07;nan;95261.91;5072297;28;20021;-81
2023/08/18 03:45:39;;;;;;;10.88;5.18;;;;;;;24.16;nan;95264.41;5071634;28;20035;-81
2023/08/18 03:48:05;;;;;;;11.73;5.25;;;;;;;24.33;nan;95295.75;5072242;28;20356;-81
2023/08/18 03:50:33;;;;;;;11.80;4.75;;;;;;;24.16;nan;95286.88;5071437;28;20021;-81
2023/08/18 03:52:59;;;;;;;13.77;5.20;;;;;;;24.05;nan;95260.69;5071657;28;20039;-81
2023/08/18 03:55:24;;;;;;;13.23;5.05;;;;;;;23.58;nan;95204.03;5071193;28;20033;-81
2023/08/18 03:57:50;;;;;;;9.75;5.32;;;;;;;23.89;nan;95268.09;5071886;28;20036;-81
2023/08/18 04:00:17;;;;;;;9.80;5.63;;;;;;;23.71;nan;95251.50;5072801;28;20107;-81
2023/08/18 04:02:43;;;;;;;7.25;5.15;;;;;;;23.81;nan;95267.97;5070772;28;20036;-81
2023/08/18 04:05:09;;;;;;;12.75;5.38;;;;;;;23.56;nan;95245.00;5071379;28;20039;-81
2023/08/18 04:07:34;;;;;;;9.02;5.68;;;;;;;23.81;nan;95288.84;5071363;28;20126;-81
2023/08/18 04:09:59;;;;;;;11.77;5.65;;;;;;;23.27;nan;95202.19;5072608;28;20103;-81
2023/08/18 04:12:25;;;;;;;9.65;5.75;;;;;;;23.87;nan;95298.28;5070867;28;20032;-81
2023/08/18 04:14:50;;;;;;;11.35;5.63;;;;;;;23.87;nan;95292.84;5072470;28;20074;-81
2023/08/18 04:17:16;;;;;;;9.52;5.22;;;;;;;23.75;nan;95284.84;5071977;28;20068;-81
2023/08/18 04:19:42;;;;;;;9.68;4.70;;;;;;;23.55;nan;95283.25;5072332;28;20061;-81
2023/08/18 04:22:08;;;;;;;9.23;5.75;;;;;;;23.23;nan;95229.16;5071287;28;20501;-81
2023/08/18 04:24:33;;;;;;;10.73;5.70;;;;;;;23.34;nan;95245.66;5071041;28;20024;-81
2023/08/18 04:27:01;;;;;;;9.48;6.03;;;;;;;23.36;nan;95237.94;5069981;28;20124;-81
2023/08/18 04:29:27;;;;;;;13.55;5.85;;;;;;;23.55;nan;95261.59;5071097;28;20028;-81
2023/08/18 04:31:53;;;;;;;11.63;5.72;;;;;;;23.63;nan;95266.03;5071494;28;20086;-81
2023/08/18 04:34:18;;;;;;;9.02;5.50;;;;;;;23.85;nan;95305.97;5071893;28;20112;-81
2023/08/18 04:36:44;;;;;;;20.63;5.90;;;;;;;23.75;nan;95282.13;5072321;28;20036;-81
2023/08/18 04:39:13;;;;;;;11.95;5.65;;;;;;;23.93;nan;95315.81;5070664;28;20067;-81
2023/08/18 04:41:38;;;;;;;11.20;5.72;;;;;;;23.88;nan;95304.47;5072112;28;20131;-81
2023/08/18 04:44:05;;;;;;;16.63;5.93;;;;;;;23.70;nan;95295.97;5052992;28;20112;-81
2023/08/18 04:46:31;;;;;;;10.90;6.35;;;;;;;23.55;nan;95273.22;5054562;28;20029;-80
2023/08/18 04:48:57;;;;;;;13.70;5.68;;;;;;;23.65;nan;95291.59;5072353;28;20064;-81
2023/08/18 04:51:23;;;;;;;10.30;5.93;;;;;;;23.50;nan;95275.41;5072571;28;20031;-81
2023/08/18 04:53:49;;;;;;;10.80;5.47;;;;;;;23.51;nan;95279.66;5071544;28;20040;-80
2023/08/18 04:56:15;;;;;;;14.75;6.13;;;;;;;23.59;nan;95295.72;5070879;28;20036;-80
2023/08/18 04:58:41;;;;;;;12.85;6.00;;;;;;;23.74;nan;95315.75;5071096;28;20048;-81
2023/08/18 05:01:07;;;;;;;10.45;5.72;;;;;;;23.60;nan;95318.94;5071474;28;20033;-80
2023/08/18 05:03:33;;;;;;;15.55;6.00;;;;;;;23.61;nan;95298.88;5072649;28;20063;-80
2023/08/18 05:06:04;;;;;;;11.02;5.63;;;;;;;22.71;nan;95167.28;5072469;28;20063;-81
2023/08/18 05:08:31;;;;;;;14.50;5.35;;;;;;;23.49;nan;95276.56;5072317;28;20096;-80
2023/08/18 05:11:02;;;;;;;13.98;5.88;;;;;;;23.85;nan;95331.13;5071554;28;20037;-82
2023/08/18 05:13:27;;;;;;;17.80;5.45;;;;;;;23.77;nan;95320.47;5053697;28;20074;-81
2023/08/18 05:15:53;;;;;;;9.63;5.45;;;;;;;23.90;nan;95315.72;5071027;28;20036;-80
2023/08/18 05:18:20;;;;;;;12.75;5.85;;;;;;;23.62;nan;95280.69;5071486;28;20060;-81
2023/08/18 05:20:45;;;;;;;16.20;5.22;;;;;;;23.91;nan;95309.16;5071529;28;20051;-80
2023/08/18 05:23:11;;;;;;;10.57;5.85;;;;;;;23.91;nan;95296.41;5071806;28;20032;-80
2023/08/18 05:25:36;;;;;;;15.57;5.85;;;;;;;23.46;nan;95234.69;5070069;28;20044;-80
2023/08/18 05:28:02;;;;;;;14.50;6.25;;;;;;;24.02;nan;95319.09;5069892;28;20411;-81
2023/08/18 05:30:28;;;;;;;10.90;5.68;;;;;;;23.66;nan;95247.13;5068369;28;20031;-81
2023/08/18 05:32:53;;;;;;;12.05;5.43;;;;;;;24.10;nan;95320.81;5070165;28;20072;-80
2023/08/18 05:35:19;;;;;;;17.67;6.57;;;;;;;24.18;nan;95341.47;5071377;28;20036;-80
2023/08/18 05:37:44;;;;;;;12.98;6.25;;;;;;;23.84;nan;95282.72;5070457;28;20050;-80
2023/08/18 05:40:10;;;;;;;11.65;5.30;;;;;;;23.90;nan;95283.22;5073945;28;20420;-80
2023/08/18 05:42:35;;;;;;;16.27;5.88;;;;;;;24.20;nan;95336.53;5073382;28;20044;-80
2023/08/18 05:45:01;;;;;;;11.32;5.10;;;;;;;23.66;nan;95227.41;5074128;28;20535;-80
2023/08/18 05:47:26;;;;;;;15.57;5.97;;;;;;;24.39;nan;95337.69;5086210;28;20085;-80
2023/08/18 05:49:51;;;;;;;11.23;6.10;;;;;;;24.04;nan;95291.63;5076183;28;20025;-80
2023/08/18 05:52:17;;;;;;;22.77;6.25;;;;;;;24.29;nan;95303.00;5073959;28;20123;-81
2023/08/18 05:54:42;;;;;;;16.58;5.95;;;;;;;23.56;nan;95200.91;5075714;28;20177;-81
2023/08/18 05:57:08;;;;;;;18.13;5.47;;;;;;;23.80;nan;95241.25;5076488;28;20040;-81
2023/08/18 05:59:33;;;;;;;14.07;5.53;;;;;;;24.19;nan;95290.78;5077229;28;20040;-80
2023/08/18 06:01:59;;;;;;;13.48;5.97;;;;;;;24.51;nan;95332.09;5075094;28;20032;-81
2023/08/18 06:04:24;;;;;;;16.85;5.93;;;;;;;24.54;nan;95340.31;5076897;28;20032;-81
2023/08/18 06:06:49;;;;;;;17.52;5.95;;;;;;;24.33;nan;95291.13;5077064;28;20104;-81
2023/08/18 06:09:15;;;;;;;20.80;5.60;;;;;;;24.44;nan;95310.28;5075463;28;20074;-81
2023/08/18 06:11:41;;;;;;;10.05;5.78;;;;;;;24.44;nan;95288.59;5076324;28;20032;-81
2023/08/18 06:14:07;;;;;;;12.38;5.75;;;;;;;24.71;nan;95316.59;5076046;28;20035;-81
2023/08/18 06:16:32;;;;;;;14.82;5.32;;;;;;;24.81;nan;95340.41;5076697;28;20084;-81
2023/08/18 06:18:58;;;;;;;9.50;5.00;;;;;;;23.77;nan;95168.84;5074914;28;20070;-81
2023/08/18 06:21:23;;;;;;;15.57;5.63;;;;;;;24.64;nan;95287.44;5074569;28;20036;-81
2023/08/18 06:23:48;;;;;;;23.27;5.85;;;;;;;24.77;nan;95305.09;5075613;28;20041;-81
2023/08/18 06:26:14;;;;;;;15.57;5.20;;;;;;;24.81;nan;95305.91;5076620;28;20033;-81
2023/08/18 06:28:39;;;;;;;16.42;4.82;;;;;;;24.49;nan;95250.31;5076065;28;20494;-81
2023/08/18 06:31:06;;;;;;;16.48;5.50;;;;;;;24.71;nan;95284.06;5076172;28;20085;-81
2023/08/18 06:33:33;;;;;;;16.15;5.72;;;;;;;24.78;nan;95286.88;5076445;28;20055;-81
2023/08/18 06:35:58;;;;;;;18.25;5.50;;;;;;;25.14;nan;95320.84;5075188;28;20060;-82
2023/08/18 06:38:24;;;;;;;12.75;5.28;;;;;;;24.71;nan;95251.50;5075737;28;20039;-81
2023/08/18 06:40:49;;;;;;;8.90;4.80;;;;;;;25.14;nan;95329.78;5075479;28;20120;-81
2023/08/18 06:43:14;;;;;;;13.80;5.00;;;;;;;24.60;nan;95254.03;5075813;28;20507;-81
2023/08/18 06:45:40;;;;;;;8.77;4.72;;;;;;;25.19;nan;95329.47;5075671;28;20132;-81
2023/08/18 06:48:05;;;;;;;12.55;5.10;;;;;;;25.24;nan;95328.41;5074547;28;20040;-81
2023/08/18 06:50:31;;;;;;;14.82;4.90;;;;;;;25.12;nan;95296.00;5074814;28;20075;-81
2023/08/18 06:52:56;;;;;;;10.80;4.32;;;;;;;25.43;nan;95343.81;5075692;28;20037;-81
2023/08/18 06:55:22;;;;;;;12.27;4.88;;;;;;;25.25;nan;95308.25;5075626;28;20037;-81
2023/08/18 06:57:47;;;;;;;7.78;4.63;;;;;;;25.08;nan;95262.63;5074862;28;20037;-81
2023/08/18 07:00:13;;;;;;;17.30;4.75;;;;;;;25.53;nan;95340.47;5076039;28;20033;-81
2023/08/18 07:02:38;;;;;;;7.40;4.93;;;;;;;25.17;nan;95274.78;5074158;28;20552;-82
2023/08/18 07:05:07;;;;;;;17.00;5.05;;;;;;;25.24;nan;95293.13;5072295;28;20039;-82
2023/08/18 07:07:34;;;;;;;9.40;4.82;;;;;;;25.37;nan;95295.25;5074205;28;20032;-81
2023/08/18 07:09:59;;;;;;;16.55;5.28;;;;;;;25.21;nan;95262.03;5072710;28;20036;-81
2023/08/18 07:12:25;;;;;;;8.50;4.53;;;;;;;25.78;nan;95330.03;5074823;28;20044;-82
2023/08/18 07:14:50;;;;;;;12.43;4.93;;;;;;;25.74;nan;95313.66;5074617;28;20113;-81
2023/08/18 07:17:17;;;;;;;16.65;5.30;;;;;;;25.88;nan;95315.78;5074415;28;20048;-82
2023/08/18 07:19:43;;;;;;;12.88;5.10;;;;;;;25.72;nan;95288.78;5074438;28;20033;-82
2023/08/18 07:22:09;;;;;;;6.88;4.47;;;;;;;25.97;nan;95327.16;5074249;28;20038;-82
2023/08/18 07:24:35;;;;;;;8.07;4.03;;;;;;;26.05;nan;95323.41;5072506;28;20463;-82
2023/08/18 07:27:00;;;;;;;9.88;4.57;;;;;;;26.02;nan;95314.03;5074099;28;20033;-81
2023/08/18 07:29:26;;;;;;;7.15;4.05;;;;;;;26.02;nan;95302.38;5073767;28;20032;-82
2023/08/18 07:31:51;;;;;;;15.52;4.82;;;;;;;25.87;nan;95271.53;5072028;28;20040;-82
2023/08/18 07:34:17;;;;;;;11.95;4.20;;;;;;;26.24;nan;95325.22;5070607;28;20474;-81
2023/08/18 07:36:42;;;;;;;10.85;4.43;;;;;;;26.29;nan;95322.19;5071598;28;20055;-83
2023/08/18 07:39:10;;;;;;;9.55;3.85;;;;;;;26.16;nan;95299.88;5073535;28;20106;-81
2023/08/18 07:41:37;;;;;;;8.88;3.70;;;;;;;25.89;nan;95247.50;5072203;28;20431;-81
2023/08/18 07:44:03;;;;;;;9.40;4.20;;;;;;;26.42;nan;95326.22;5073535;28;20599;-82
2023/08/18 07:46:30;;;;;;;9.00;4.13;;;;;;;26.37;nan;95300.16;5071685;28;20064;-81
2023/08/18 07:48:56;;;;;;;14.85;4.63;;;;;;;26.26;nan;95276.69;5071350;28;20063;-81
2023/08/18 07:51:21;;;;;;;9.10;4.22;;;;;;;26.07;nan;95236.84;5071264;28;20024;-81
2023/08/18 07:53:47;;;;;;;12.77;4.10;;;;;;;26.29;nan;95284.13;5071428;28;20036;-81
2023/08/18 07:56:12;;;;;;;8.00;3.72;;;;;;;26.55;nan;95286.72;5072052;28;20062;-81
2023/08/18 07:58:38;;;;;;;14.35;4.22;;;;;;;26.52;nan;95288.28;5071710;28;20041;-81
2023/08/18 08:01:03;;;;;;;10.48;3.42;;;;;;;26.64;nan;95287.22;5072847;28;20135;-81
2023/08/18 08:03:29;;;;;;;21.92;4.82;;;;;;;26.81;nan;95310.31;5071667;28;20039;-81
2023/08/18 08:05:55;;;;;;;10.20;3.85;;;;;;;26.93;nan;95320.19;5070622;28;20067;-81
2023/08/18 08:08:20;;;;;;;5.68;3.20;;;;;;;26.95;nan;95309.69;5070962;28;20036;-81
2023/08/18 08:10:45;;;;;;;11.55;3.92;;;;;;;27.10;nan;95317.63;5071879;28;20063;-81
2023/08/18 08:13:11;;;;;;;11.60;3.92;;;;;;;27.07;nan;95321.09;5071603;28;20515;-81
2023/08/18 08:15:37;;;;;;;12.20;3.85;;;;;;;26.59;nan;95244.03;5070544;28;20427;-81
2023/08/18 08:18:03;;;;;;;14.13;3.20;;;;;;;26.92;nan;95275.09;5072676;28;20135;-81
2023/08/18 08:20:28;;;;;;;7.75;4.10;;;;;;;26.79;nan;95245.38;5071127;28;20186;-81
2023/08/18 08:22:54;;;;;;;12.50;3.97;;;;;;;27.07;nan;95279.50;5072132;28;20044;-81
2023/08/18 08:25:19;;;;;;;11.45;3.58;;;;;;;26.91;nan;95247.09;5071102;28;20024;-81
2023/08/18 08:27:45;;;;;;;9.25;3.22;;;;;;;27.17;nan;95268.66;5072572;28;20040;-81
2023/08/18 08:30:13;;;;;;;14.68;3.42;;;;;;;27.21;nan;95263.28;5071333;28;20024;-81
2023/08/18 08:32:38;;;;;;;9.73;3.80;;;;;;;27.38;nan;95289.84;5071550;28;20036;-81
2023/08/18 08:35:04;;;;;;;8.73;3.10;;;;;;;27.38;nan;95278.97;5072690;28;20029;-81
2023/08/18 08:37:29;;;;;;;9.38;3.30;;;;;;;27.34;nan;95283.59;5071889;28;20032;-81
2023/08/18 08:39:55;;;;;;;9.07;3.95;;;;;;;27.31;nan;95265.31;5071171;28;20040;-81
2023/08/18 08:42:22;;;;;;;10.68;3.53;;;;;;;27.53;nan;95299.72;5070345;28;20028;-81
2023/08/18 08:44:47;;;;;;;10.13;3.90;;;;;;;27.20;nan;95235.25;5070132;28;20090;-81
2023/08/18 08:47:13;;;;;;;9.77;3.78;;;;;;;27.45;nan;95259.94;5072114;28;20414;-81
2023/08/18 08:49:42;;;;;;;8.77;3.20;;;;;;;27.37;nan;95252.88;5070603;28;20036;-81
2023/08/18 08:52:16;;;;;;;7.72;3.50;;;;;;;27.32;nan;95223.28;5071939;28;20066;-81
2023/08/18 08:55:05;;;;;;;14.73;3.58;;;;;;;27.51;nan;95249.47;5070762;28;20107;-81
2023/08/18 08:57:31;;;;;;;7.28;3.10;;;;;;;27.57;nan;95264.31;5070838;28;20039;-81
2023/08/18 08:59:56;;;;;;;4.88;2.83;;;;;;;27.77;nan;95273.00;5088983;28;20399;-81
2023/08/18 09:02:22;;;;;;;8.27;3.10;;;;;;;27.54;nan;95249.50;5070860;28;20021;-81
2023/08/18 09:04:47;;;;;;;11.35;3.80;;;;;;;27.64;nan;95234.38;5072303;28;20040;-81
2023/08/18 09:07:14;;;;;;;12.85;3.33;;;;;;;28.00;nan;95293.34;5072181;28;20040;-81
2023/08/18 09:09:40;;;;;;;7.97;3.53;;;;;;;27.82;nan;95253.56;5070075;28;20040;-81
2023/08/18 09:12:07;;;;;;;8.45;3.17;;;;;;;28.05;nan;95281.31;5071628;28;20111;-81
2023/08/18 09:14:34;;;;;;;10.18;3.40;;;;;;;28.16;nan;95281.38;5069910;28;20499;-80
2023/08/18 09:17:00;;;;;;;9.63;3.38;;;;;;;28.28;nan;95284.56;5070422;28;20060;-80
2023/08/18 09:19:26;;;;;;;10.50;3.25;;;;;;;28.06;nan;95254.84;5071254;28;20044;-81
2023/08/18 09:21:51;;;;;;;8.73;3.30;;;;;;;27.81;nan;95222.03;5070022;28;20415;-81
2023/08/18 09:24:20;;;;;;;5.38;3.30;;;;;;;27.94;nan;95232.19;5070507;28;20110;-82
2023/08/18 09:26:46;;;;;;;7.07;3.15;;;;;;;28.31;nan;95266.63;5071138;28;20037;-82
2023/08/18 09:29:11;;;;;;;7.93;3.50;;;;;;;28.18;nan;95255.31;5069911;28;20522;-82
2023/08/18 09:31:37;;;;;;;11.00;3.35;;;;;;;28.38;nan;95289.25;5071709;28;20036;-82
2023/08/18 09:34:02;;;;;;;6.25;3.15;;;;;;;28.38;nan;95283.81;5071915;28;20411;-82
2023/08/18 09:36:31;;;;;;;9.73;2.90;;;;;;;28.44;nan;95258.91;5070511;28;20460;-82
2023/08/18 09:38:56;;;;;;;12.73;3.00;;;;;;;28.38;nan;95256.53;5071492;28;20519;-83
2023/08/18 09:41:21;;;;;;;7.88;3.03;;;;;;;28.56;nan;95272.94;5069150;28;20071;-82
2023/08/18 09:43:48;;;;;;;15.40;4.70;;;;;;;28.64;nan;95284.66;5069728;28;20043;-82
2023/08/18 09:46:16;;;;;;;10.45;4.55;;;;;;;28.38;nan;95233.94;5070153;28;20150;-82
2023/08/18 09:48:45;;;;;;;9.10;3.47;;;;;;;28.69;nan;95279.59;5070328;28;20195;-82
2023/08/18 09:51:12;;;;;;;5.75;3.70;;;;;;;28.39;nan;95221.84;5070313;28;20040;-82
2023/08/18 09:53:49;;;;;;;5.63;3.50;;;;;;;28.73;nan;95276.88;5071938;28;20155;-82
2023/08/18 09:56:18;;;;;;;10.23;3.38;;;;;;;28.89;nan;95243.81;5072199;28;20033;-82
2023/08/18 09:59:03;;;;;;;10.63;3.42;;;;;;;29.36;nan;95216.13;5071646;28;20040;-83
2023/08/18 10:01:30;;;;;;;5.72;2.83;;;;;;;30.37;nan;95241.94;5071581;28;20111;-82
2023/08/18 10:03:58;;;;;;;6.75;3.33;;;;;;;31.42;nan;95276.09;5070861;28;20102;-82
2023/08/18 10:06:25;;;;;;;8.88;3.33;;;;;;;31.97;nan;95246.97;5070341;28;20098;-83
2023/08/18 10:08:52;;;;;;;8.88;3.30;;;;;;;33.00;nan;95262.13;5071952;28;20044;-83
2023/08/18 10:11:17;;;;;;;11.75;2.70;;;;;;;33.72;nan;95274.34;5072094;28;20028;-83
2023/08/18 10:13:43;;;;;;;12.30;2.53;;;;;;;34.39;nan;95277.78;5070179;28;20093;-82
2023/08/18 10:16:09;;;;;;;8.63;3.13;;;;;;;35.10;nan;95267.94;5072003;28;20040;-83
2023/08/18 10:18:34;;;;;;;10.88;2.97;;;;;;;35.51;nan;95237.81;5069026;28;20049;-82
2023/08/18 10:21:00;;;;;;;9.95;2.58;;;;;;;36.23;nan;95273.41;5071331;28;20029;-82
2023/08/18 10:23:29;;;;;;;6.10;2.85;;;;;;;36.57;nan;95275.56;5071180;28;20066;-82
2023/08/18 10:25:55;;;;;;;7.32;3.00;;;;;;;36.66;nan;95274.94;5074336;28;20471;-81
2023/08/18 10:28:27;;;;;;;8.20;2.83;;;;;;;37.02;nan;95267.09;5073339;28;20035;-82
2023/08/18 10:31:04;;;;;;;6.65;2.90;;;;;;;37.07;nan;95249.97;5074683;28;20024;-81
2023/08/18 10:33:45;;;;;;;5.18;2.72;;;;;;;37.49;nan;95266.41;5073324;28;20020;-81
2023/08/18 10:36:16;;;;;;;9.60;2.83;;;;;;;37.52;nan;95254.47;5072921;28;20029;-81
2023/08/18 10:38:41;;;;;;;11.07;2.63;;;;;;;37.60;nan;95255.81;5072606;28;20047;-81
2023/08/18 10:41:08;;;;;;;10.40;2.47;;;;;;;37.58;nan;95238.84;5073764;28;20028;-81
2023/08/18 10:43:47;;;;;;;16.17;2.97;;;;;;;37.67;nan;95276.94;5074747;28;20103;-81
2023/08/18 10:46:13;;;;;;;6.43;3.05;;;;;;;37.77;nan;95237.03;5073511;28;20028;-82
2023/08/18 10:48:39;;;;;;;5.60;2.65;;;;;;;37.94;nan;95268.06;5073528;28;20034;-82
2023/08/18 10:51:04;;;;;;;9.25;2.88;;;;;;;37.60;nan;95230.91;5075221;28;20041;-82
2023/08/18 10:53:34;;;;;;;13.38;3.30;;;;;;;38.15;nan;95268.13;5073691;28;20146;-82
2023/08/18 10:56:00;;;;;;;6.37;2.70;;;;;;;37.84;nan;95240.31;5073646;28;20048;-81
2023/08/18 10:58:25;;;;;;;6.88;2.83;;;;;;;37.82;nan;95244.78;5073405;28;20275;-81
2023/08/18 11:00:51;;;;;;;11.35;3.22;;;;;;;37.40;nan;95175.81;5073186;28;20016;-81
2023/08/18 11:03:20;;;;;;;7.13;2.70;;;;;;;37.73;nan;95253.00;5076122;28;20119;-89
2023/08/18 11:05:46;;;;;;;7.30;2.70;;;;;;;36.56;nan;95099.97;5071648;28;20439;-82
2023/08/18 11:08:11;;;;;;;9.30;3.15;;;;;;;37.65;nan;95219.25;5071544;28;20025;-82
2023/08/18 11:10:39;;;;;;;11.48;2.97;;;;;;;37.51;nan;95202.34;5072806;28;20032;-81
2023/08/18 11:13:04;;;;;;;9.73;2.60;;;;;;;36.94;nan;95193.91;5073163;28;20032;-81
2023/08/18 11:15:30;;;;;;;4.72;2.35;;;;;;;37.52;nan;95240.63;5072712;28;20029;-81
2023/08/18 11:17:55;;;;;;;7.70;2.85;;;;;;;37.76;nan;95252.09;5073813;28;20079;-82
2023/08/18 11:20:22;;;;;;;4.13;2.40;;;;;;;36.93;nan;95161.97;5073874;28;20033;-81
2023/08/18 11:22:52;;;;;;;6.78;2.40;;;;;;;37.96;nan;95247.03;5073356;28;20060;-81
2023/08/18 11:25:21;;;;;;;10.10;3.10;;;;;;;38.03;nan;95241.25;5069876;28;20452;-81
2023/08/18 11:27:48;;;;;;;5.50;2.67;;;;;;;38.28;nan;95242.38;5073445;28;20055;-81
2023/08/18 11:30:14;;;;;;;10.32;2.65;;;;;;;38.37;nan;95220.28;5074583;28;20028;-81
2023/08/18 11:32:41;;;;;;;9.32;2.90;;;;;;;38.70;nan;95243.56;5074928;28;20498;-82
2023/08/18 11:35:11;;;;;;;9.98;2.70;;;;;;;38.61;nan;95229.66;5076010;28;20442;-82
2023/08/18 11:37:41;;;;;;;7.75;2.30;;;;;;;38.58;nan;95189.78;5074056;28;20092;-82
2023/08/18 11:40:09;;;;;;;;;;;;;;;38.94;nan;95232.75;5074453;28;20040;-82
2023/08/18 11:42:34;;;;;;;7.55;3.13;;;;;;;38.81;nan;95209.88;5074591;28;19940;-82